sensor_id;sensor_type;location;lat;lon;timestamp;temperature;humidity
17442;DHT22;8838;50.144;8.176;2022-11-11T00:00:16;5.00;99.90
17442;DHT22;8838;50.144;8.176;2022-11-11T00:02:43;4.80;99.90
17442;DHT22;8838;50.144;8.176;2022-11-11T00:05:10;4.80;99.90
17442;DHT22;8838;50.144;8.176;2022-11-11T00:07:38;4.70;99.90
17442;DHT22;8838;50.144;8.176;2022-11-11T00:10:06;4.60;99.90
17442;DHT22;8838;50.144;8.176;2022-11-11T00:12:34;4.60;99.90
17442;DHT22;8838;50.144;8.176;2022-11-11T00:15:00;4.50;99.90
17442;DHT22;8838;50.144;8.176;2022-11-11T00:17:27;4.50;99.90
17442;DHT22;8838;50.144;8.176;2022-11-11T00:20:11;4.30;99.90
17442;DHT22;8838;50.144;8.176;2022-11-11T00:22:56;4.30;99.90
17442;DHT22;8838;50.144;8.176;2022-11-11T00:25:41;4.20;99.90
17442;DHT22;8838;50.144;8.176;2022-11-11T00:28:08;4.10;99.90
17442;DHT22;8838;50.144;8.176;2022-11-11T00:30:35;4.20;99.90
17442;DHT22;8838;50.144;8.176;2022-11-11T00:33:01;4.20;99.90
17442;DHT22;8838;50.144;8.176;2022-11-11T00:35:28;4.30;99.90
17442;DHT22;8838;50.144;8.176;2022-11-11T00:38:14;4.30;99.90
17442;DHT22;8838;50.144;8.176;2022-11-11T00:41:02;4.30;99.90
17442;DHT22;8838;50.144;8.176;2022-11-11T00:43:29;4.30;99.90
17442;DHT22;8838;50.144;8.176;2022-11-11T00:45:56;4.40;99.90
17442;DHT22;8838;50.144;8.176;2022-11-11T00:48:43;4.40;99.90
17442;DHT22;8838;50.144;8.176;2022-11-11T00:51:28;4.40;99.90
17442;DHT22;8838;50.144;8.176;2022-11-11T00:53:56;4.30;99.90
17442;DHT22;8838;50.144;8.176;2022-11-11T00:56:23;4.30;99.90
17442;DHT22;8838;50.144;8.176;2022-11-11T00:58:51;4.30;99.90
17442;DHT22;8838;50.144;8.176;2022-11-11T01:01:18;4.30;99.90
17442;DHT22;8838;50.144;8.176;2022-11-11T01:03:45;4.30;99.90
17442;DHT22;8838;50.144;8.176;2022-11-11T01:06:12;4.30;99.90
17442;DHT22;8838;50.144;8.176;2022-11-11T01:08:40;4.30;99.90
17442;DHT22;8838;50.144;8.176;2022-11-11T01:11:13;4.30;99.90
17442;DHT22;8838;50.144;8.176;2022-11-11T01:13:41;4.30;99.90
17442;DHT22;8838;50.144;8.176;2022-11-11T01:16:11;4.30;99.90
17442;DHT22;8838;50.144;8.176;2022-11-11T01:18:40;4.40;99.90
17442;DHT22;8838;50.144;8.176;2022-11-11T01:21:10;4.30;99.90
17442;DHT22;8838;50.144;8.176;2022-11-11T01:23:39;4.30;99.90
17442;DHT22;8838;50.144;8.176;2022-11-11T01:26:09;4.40;99.90
17442;DHT22;8838;50.144;8.176;2022-11-11T01:28:38;4.40;99.90
17442;DHT22;8838;50.144;8.176;2022-11-11T01:31:06;4.40;99.90
17442;DHT22;8838;50.144;8.176;2022-11-11T01:33:33;4.30;99.90
17442;DHT22;8838;50.144;8.176;2022-11-11T01:36:06;4.20;99.90
17442;DHT22;8838;50.144;8.176;2022-11-11T01:38:33;4.10;99.90
17442;DHT22;8838;50.144;8.176;2022-11-11T01:41:01;4.00;99.90
17442;DHT22;8838;50.144;8.176;2022-11-11T01:43:51;3.90;99.90
17442;DHT22;8838;50.144;8.176;2022-11-11T01:46:25;3.90;99.90
17442;DHT22;8838;50.144;8.176;2022-11-11T01:48:55;3.80;99.90
17442;DHT22;8838;50.144;8.176;2022-11-11T01:51:43;3.90;99.90
17442;DHT22;8838;50.144;8.176;2022-11-11T01:54:14;4.00;99.90
17442;DHT22;8838;50.144;8.176;2022-11-11T01:56:47;4.20;99.90
17442;DHT22;8838;50.144;8.176;2022-11-11T01:59:16;4.10;99.90
17442;DHT22;8838;50.144;8.176;2022-11-11T02:01:44;4.20;99.90
17442;DHT22;8838;50.144;8.176;2022-11-11T02:04:11;4.20;99.90
17442;DHT22;8838;50.144;8.176;2022-11-11T02:06:59;4.30;99.90
17442;DHT22;8838;50.144;8.176;2022-11-11T02:09:27;4.40;99.90
17442;DHT22;8838;50.144;8.176;2022-11-11T02:11:57;4.40;99.90
17442;DHT22;8838;50.144;8.176;2022-11-11T02:14:47;4.30;99.90
17442;DHT22;8838;50.144;8.176;2022-11-11T02:17:15;4.10;99.90
17442;DHT22;8838;50.144;8.176;2022-11-11T02:19:45;4.00;99.90
17442;DHT22;8838;50.144;8.176;2022-11-11T02:22:20;4.00;99.90
17442;DHT22;8838;50.144;8.176;2022-11-11T02:24:50;3.90;99.90
17442;DHT22;8838;50.144;8.176;2022-11-11T02:27:18;3.90;99.90
17442;DHT22;8838;50.144;8.176;2022-11-11T02:29:48;3.90;99.90
17442;DHT22;8838;50.144;8.176;2022-11-11T02:32:15;3.90;99.90
17442;DHT22;8838;50.144;8.176;2022-11-11T02:34:42;3.80;99.90
17442;DHT22;8838;50.144;8.176;2022-11-11T02:37:09;3.80;99.90
17442;DHT22;8838;50.144;8.176;2022-11-11T02:39:42;3.70;99.90
17442;DHT22;8838;50.144;8.176;2022-11-11T02:42:13;3.70;99.90
17442;DHT22;8838;50.144;8.176;2022-11-11T02:44:41;3.60;99.90
17442;DHT22;8838;50.144;8.176;2022-11-11T02:47:08;3.80;99.90
17442;DHT22;8838;50.144;8.176;2022-11-11T02:49:36;3.80;99.90
17442;DHT22;8838;50.144;8.176;2022-11-11T02:52:03;3.90;99.90
17442;DHT22;8838;50.144;8.176;2022-11-11T02:54:30;4.00;99.90
17442;DHT22;8838;50.144;8.176;2022-11-11T02:56:57;4.00;99.90
17442;DHT22;8838;50.144;8.176;2022-11-11T02:59:34;4.00;99.90
17442;DHT22;8838;50.144;8.176;2022-11-11T03:02:02;4.00;99.90
17442;DHT22;8838;50.144;8.176;2022-11-11T03:04:28;3.80;99.90
17442;DHT22;8838;50.144;8.176;2022-11-11T03:06:55;3.70;99.90
17442;DHT22;8838;50.144;8.176;2022-11-11T03:09:22;3.60;99.90
17442;DHT22;8838;50.144;8.176;2022-11-11T03:11:49;3.80;99.90
17442;DHT22;8838;50.144;8.176;2022-11-11T03:14:16;3.90;99.90
17442;DHT22;8838;50.144;8.176;2022-11-11T03:16:44;3.90;99.90
17442;DHT22;8838;50.144;8.176;2022-11-11T03:19:28;3.80;99.90
17442;DHT22;8838;50.144;8.176;2022-11-11T03:21:55;3.70;99.90
17442;DHT22;8838;50.144;8.176;2022-11-11T03:24:21;3.70;99.90
17442;DHT22;8838;50.144;8.176;2022-11-11T03:26:47;3.70;99.90
17442;DHT22;8838;50.144;8.176;2022-11-11T03:29:14;3.70;99.90
17442;DHT22;8838;50.144;8.176;2022-11-11T03:31:41;3.70;99.90
17442;DHT22;8838;50.144;8.176;2022-11-11T03:34:09;3.70;99.90
17442;DHT22;8838;50.144;8.176;2022-11-11T03:36:45;3.70;99.90
17442;DHT22;8838;50.144;8.176;2022-11-11T03:39:29;3.80;99.90
17442;DHT22;8838;50.144;8.176;2022-11-11T03:41:56;3.80;99.90
17442;DHT22;8838;50.144;8.176;2022-11-11T03:44:23;3.70;99.90
17442;DHT22;8838;50.144;8.176;2022-11-11T03:46:53;3.70;99.90
17442;DHT22;8838;50.144;8.176;2022-11-11T03:49:21;3.70;99.90
17442;DHT22;8838;50.144;8.176;2022-11-11T03:51:48;3.70;99.90
17442;DHT22;8838;50.144;8.176;2022-11-11T03:54:15;3.60;99.90
17442;DHT22;8838;50.144;8.176;2022-11-11T03:56:41;3.60;99.90
17442;DHT22;8838;50.144;8.176;2022-11-11T03:59:08;3.40;99.90
17442;DHT22;8838;50.144;8.176;2022-11-11T04:01:35;3.30;99.90
17442;DHT22;8838;50.144;8.176;2022-11-11T04:04:21;3.30;99.90
17442;DHT22;8838;50.144;8.176;2022-11-11T04:07:07;3.30;99.90
17442;DHT22;8838;50.144;8.176;2022-11-11T04:09:52;3.20;99.90
17442;DHT22;8838;50.144;8.176;2022-11-11T04:12:36;3.20;99.90
17442;DHT22;8838;50.144;8.176;2022-11-11T04:15:18;3.30;99.90
17442;DHT22;8838;50.144;8.176;2022-11-11T04:18:11;3.40;99.90
17442;DHT22;8838;50.144;8.176;2022-11-11T04:20:41;3.60;99.90
17442;DHT22;8838;50.144;8.176;2022-11-11T04:23:26;3.60;99.90
17442;DHT22;8838;50.144;8.176;2022-11-11T04:25:53;3.70;99.90
17442;DHT22;8838;50.144;8.176;2022-11-11T04:28:20;3.70;99.90
17442;DHT22;8838;50.144;8.176;2022-11-11T04:31:04;3.60;99.90
17442;DHT22;8838;50.144;8.176;2022-11-11T04:33:31;3.50;99.90
17442;DHT22;8838;50.144;8.176;2022-11-11T04:35:58;3.40;99.90
17442;DHT22;8838;50.144;8.176;2022-11-11T04:38:25;3.30;99.90
17442;DHT22;8838;50.144;8.176;2022-11-11T04:41:09;3.10;99.90
17442;DHT22;8838;50.144;8.176;2022-11-11T04:43:37;3.00;99.90
17442;DHT22;8838;50.144;8.176;2022-11-11T04:46:18;3.00;99.90
17442;DHT22;8838;50.144;8.176;2022-11-11T04:48:45;3.10;99.90
17442;DHT22;8838;50.144;8.176;2022-11-11T04:51:13;3.10;99.90
17442;DHT22;8838;50.144;8.176;2022-11-11T04:53:39;3.10;99.90
17442;DHT22;8838;50.144;8.176;2022-11-11T04:56:07;3.10;99.90
17442;DHT22;8838;50.144;8.176;2022-11-11T04:58:51;3.20;99.90
17442;DHT22;8838;50.144;8.176;2022-11-11T05:01:38;3.20;99.90
17442;DHT22;8838;50.144;8.176;2022-11-11T05:04:22;3.20;99.90
17442;DHT22;8838;50.144;8.176;2022-11-11T05:06:50;3.10;99.90
17442;DHT22;8838;50.144;8.176;2022-11-11T05:09:35;3.20;99.90
17442;DHT22;8838;50.144;8.176;2022-11-11T05:12:02;3.10;99.90
17442;DHT22;8838;50.144;8.176;2022-11-11T05:14:28;3.10;99.90
17442;DHT22;8838;50.144;8.176;2022-11-11T05:17:13;3.30;99.90
17442;DHT22;8838;50.144;8.176;2022-11-11T05:19:57;3.50;99.90
17442;DHT22;8838;50.144;8.176;2022-11-11T05:22:43;3.40;99.90
17442;DHT22;8838;50.144;8.176;2022-11-11T05:25:11;3.30;99.90
17442;DHT22;8838;50.144;8.176;2022-11-11T05:27:55;3.20;99.90
17442;DHT22;8838;50.144;8.176;2022-11-11T05:30:24;3.20;99.90
17442;DHT22;8838;50.144;8.176;2022-11-11T05:32:51;3.20;99.90
17442;DHT22;8838;50.144;8.176;2022-11-11T05:35:20;3.10;99.90
17442;DHT22;8838;50.144;8.176;2022-11-11T05:37:48;3.10;99.90
17442;DHT22;8838;50.144;8.176;2022-11-11T05:40:35;3.00;99.90
17442;DHT22;8838;50.144;8.176;2022-11-11T05:43:02;3.00;99.90
17442;DHT22;8838;50.144;8.176;2022-11-11T05:45:28;3.10;99.90
17442;DHT22;8838;50.144;8.176;2022-11-11T05:48:00;3.20;99.90
17442;DHT22;8838;50.144;8.176;2022-11-11T05:50:27;3.20;99.90
17442;DHT22;8838;50.144;8.176;2022-11-11T05:52:55;3.30;99.90
17442;DHT22;8838;50.144;8.176;2022-11-11T05:55:22;3.30;99.90
17442;DHT22;8838;50.144;8.176;2022-11-11T05:57:49;3.20;99.90
17442;DHT22;8838;50.144;8.176;2022-11-11T06:00:16;3.20;99.90
17442;DHT22;8838;50.144;8.176;2022-11-11T06:02:44;3.20;99.90
17442;DHT22;8838;50.144;8.176;2022-11-11T06:05:13;3.20;99.90
17442;DHT22;8838;50.144;8.176;2022-11-11T06:07:39;3.40;99.90
17442;DHT22;8838;50.144;8.176;2022-11-11T06:10:09;3.50;99.90
17442;DHT22;8838;50.144;8.176;2022-11-11T06:12:53;3.60;99.90
17442;DHT22;8838;50.144;8.176;2022-11-11T06:15:32;3.70;99.90
17442;DHT22;8838;50.144;8.176;2022-11-11T06:18:00;3.70;99.90
17442;DHT22;8838;50.144;8.176;2022-11-11T06:20:27;3.80;99.90
17442;DHT22;8838;50.144;8.176;2022-11-11T06:22:54;3.90;99.90
17442;DHT22;8838;50.144;8.176;2022-11-11T06:25:27;3.90;99.90
17442;DHT22;8838;50.144;8.176;2022-11-11T06:28:11;4.00;99.90
17442;DHT22;8838;50.144;8.176;2022-11-11T06:30:38;3.90;99.90
17442;DHT22;8838;50.144;8.176;2022-11-11T06:33:06;3.90;99.90
17442;DHT22;8838;50.144;8.176;2022-11-11T06:35:34;3.90;99.90
17442;DHT22;8838;50.144;8.176;2022-11-11T06:38:01;3.90;99.90
17442;DHT22;8838;50.144;8.176;2022-11-11T06:40:32;4.00;99.90
17442;DHT22;8838;50.144;8.176;2022-11-11T06:42:59;4.00;99.90
17442;DHT22;8838;50.144;8.176;2022-11-11T06:45:28;3.90;99.90
17442;DHT22;8838;50.144;8.176;2022-11-11T06:47:55;3.90;99.90
17442;DHT22;8838;50.144;8.176;2022-11-11T06:50:22;3.90;99.90
17442;DHT22;8838;50.144;8.176;2022-11-11T06:52:49;3.90;99.90
17442;DHT22;8838;50.144;8.176;2022-11-11T06:55:15;4.00;99.90
17442;DHT22;8838;50.144;8.176;2022-11-11T06:57:44;4.00;99.90
17442;DHT22;8838;50.144;8.176;2022-11-11T07:00:11;4.10;99.90
17442;DHT22;8838;50.144;8.176;2022-11-11T07:02:39;4.10;99.90
17442;DHT22;8838;50.144;8.176;2022-11-11T07:05:06;4.30;99.90
17442;DHT22;8838;50.144;8.176;2022-11-11T07:07:33;4.50;99.90
17442;DHT22;8838;50.144;8.176;2022-11-11T07:10:00;4.70;99.90
17442;DHT22;8838;50.144;8.176;2022-11-11T07:12:26;4.90;99.90
17442;DHT22;8838;50.144;8.176;2022-11-11T07:14:55;5.00;99.90
17442;DHT22;8838;50.144;8.176;2022-11-11T07:17:22;5.10;99.90
17442;DHT22;8838;50.144;8.176;2022-11-11T07:19:49;5.00;99.90
17442;DHT22;8838;50.144;8.176;2022-11-11T07:22:16;5.00;99.90
17442;DHT22;8838;50.144;8.176;2022-11-11T07:24:43;5.20;99.90
17442;DHT22;8838;50.144;8.176;2022-11-11T07:27:10;5.40;99.90
17442;DHT22;8838;50.144;8.176;2022-11-11T07:29:36;5.60;99.90
17442;DHT22;8838;50.144;8.176;2022-11-11T07:32:05;5.90;99.90
17442;DHT22;8838;50.144;8.176;2022-11-11T07:34:31;6.00;99.90
17442;DHT22;8838;50.144;8.176;2022-11-11T07:36:58;6.10;99.90
17442;DHT22;8838;50.144;8.176;2022-11-11T07:39:25;6.30;99.90
17442;DHT22;8838;50.144;8.176;2022-11-11T07:41:52;6.50;99.90
17442;DHT22;8838;50.144;8.176;2022-11-11T07:44:19;6.60;99.90
17442;DHT22;8838;50.144;8.176;2022-11-11T07:46:45;6.70;99.90
17442;DHT22;8838;50.144;8.176;2022-11-11T07:49:13;6.80;99.90
17442;DHT22;8838;50.144;8.176;2022-11-11T07:51:40;6.90;99.90
17442;DHT22;8838;50.144;8.176;2022-11-11T07:54:07;7.00;99.90
17442;DHT22;8838;50.144;8.176;2022-11-11T07:56:35;7.10;99.90
17442;DHT22;8838;50.144;8.176;2022-11-11T07:59:01;7.30;99.90
17442;DHT22;8838;50.144;8.176;2022-11-11T08:01:28;7.50;99.90
17442;DHT22;8838;50.144;8.176;2022-11-11T08:03:55;7.70;99.90
17442;DHT22;8838;50.144;8.176;2022-11-11T08:06:24;7.90;99.90
17442;DHT22;8838;50.144;8.176;2022-11-11T08:08:51;8.00;99.90
17442;DHT22;8838;50.144;8.176;2022-11-11T08:11:18;8.00;99.90
17442;DHT22;8838;50.144;8.176;2022-11-11T08:14:05;8.10;99.90
17442;DHT22;8838;50.144;8.176;2022-11-11T08:16:31;8.20;99.90
17442;DHT22;8838;50.144;8.176;2022-11-11T08:18:57;8.30;99.90
17442;DHT22;8838;50.144;8.176;2022-11-11T08:21:26;8.40;99.90
17442;DHT22;8838;50.144;8.176;2022-11-11T08:23:53;8.50;99.90
17442;DHT22;8838;50.144;8.176;2022-11-11T08:26:21;8.60;99.90
17442;DHT22;8838;50.144;8.176;2022-11-11T08:28:50;8.90;99.90
17442;DHT22;8838;50.144;8.176;2022-11-11T08:31:17;9.20;99.90
17442;DHT22;8838;50.144;8.176;2022-11-11T08:33:45;9.50;99.90
17442;DHT22;8838;50.144;8.176;2022-11-11T08:36:13;10.00;99.90
17442;DHT22;8838;50.144;8.176;2022-11-11T08:38:45;10.30;99.90
17442;DHT22;8838;50.144;8.176;2022-11-11T08:41:12;10.70;99.90
17442;DHT22;8838;50.144;8.176;2022-11-11T08:43:39;10.90;99.90
17442;DHT22;8838;50.144;8.176;2022-11-11T08:46:06;10.90;99.90
17442;DHT22;8838;50.144;8.176;2022-11-11T08:48:33;11.00;99.90
17442;DHT22;8838;50.144;8.176;2022-11-11T08:51:00;11.00;99.90
17442;DHT22;8838;50.144;8.176;2022-11-11T08:53:27;10.90;99.90
17442;DHT22;8838;50.144;8.176;2022-11-11T08:55:56;10.90;99.90
17442;DHT22;8838;50.144;8.176;2022-11-11T08:58:23;10.80;99.90
17442;DHT22;8838;50.144;8.176;2022-11-11T09:00:50;10.90;99.90
17442;DHT22;8838;50.144;8.176;2022-11-11T09:03:17;11.20;99.90
17442;DHT22;8838;50.144;8.176;2022-11-11T09:05:45;11.60;99.90
17442;DHT22;8838;50.144;8.176;2022-11-11T09:08:12;11.80;99.90
17442;DHT22;8838;50.144;8.176;2022-11-11T09:10:39;11.90;99.90
17442;DHT22;8838;50.144;8.176;2022-11-11T09:13:07;12.50;99.90
17442;DHT22;8838;50.144;8.176;2022-11-11T09:15:34;13.00;99.90
17442;DHT22;8838;50.144;8.176;2022-11-11T09:18:01;13.60;99.90
17442;DHT22;8838;50.144;8.176;2022-11-11T09:20:29;14.30;99.90
17442;DHT22;8838;50.144;8.176;2022-11-11T09:22:56;15.00;99.90
17442;DHT22;8838;50.144;8.176;2022-11-11T09:25:23;15.50;99.90
17442;DHT22;8838;50.144;8.176;2022-11-11T09:27:53;15.80;99.90
17442;DHT22;8838;50.144;8.176;2022-11-11T09:30:23;15.80;99.90
17442;DHT22;8838;50.144;8.176;2022-11-11T09:32:50;16.10;99.90
17442;DHT22;8838;50.144;8.176;2022-11-11T09:35:17;15.90;99.90
17442;DHT22;8838;50.144;8.176;2022-11-11T09:37:52;15.70;99.90
17442;DHT22;8838;50.144;8.176;2022-11-11T09:40:21;16.00;99.90
17442;DHT22;8838;50.144;8.176;2022-11-11T09:42:55;16.40;99.90
17442;DHT22;8838;50.144;8.176;2022-11-11T09:45:33;16.60;99.90
17442;DHT22;8838;50.144;8.176;2022-11-11T09:48:07;16.70;99.90
17442;DHT22;8838;50.144;8.176;2022-11-11T09:50:39;16.70;99.90
17442;DHT22;8838;50.144;8.176;2022-11-11T09:53:12;16.60;99.90
17442;DHT22;8838;50.144;8.176;2022-11-11T09:55:42;16.60;99.90
17442;DHT22;8838;50.144;8.176;2022-11-11T09:58:15;16.50;99.90
17442;DHT22;8838;50.144;8.176;2022-11-11T10:00:45;16.30;99.90
17442;DHT22;8838;50.144;8.176;2022-11-11T10:03:16;16.20;99.90
17442;DHT22;8838;50.144;8.176;2022-11-11T10:05:48;15.70;99.90
17442;DHT22;8838;50.144;8.176;2022-11-11T10:08:21;15.70;99.90
17442;DHT22;8838;50.144;8.176;2022-11-11T10:10:52;15.10;99.90
17442;DHT22;8838;50.144;8.176;2022-11-11T10:13:27;14.90;99.90
17442;DHT22;8838;50.144;8.176;2022-11-11T10:16:03;14.90;99.90
17442;DHT22;8838;50.144;8.176;2022-11-11T10:18:47;14.50;99.90
17442;DHT22;8838;50.144;8.176;2022-11-11T10:21:21;14.20;99.90
17442;DHT22;8838;50.144;8.176;2022-11-11T10:23:51;14.00;99.90
17442;DHT22;8838;50.144;8.176;2022-11-11T10:26:33;14.20;99.90
17442;DHT22;8838;50.144;8.176;2022-11-11T10:29:05;14.10;99.90
17442;DHT22;8838;50.144;8.176;2022-11-11T10:31:37;14.00;99.90
17442;DHT22;8838;50.144;8.176;2022-11-11T10:34:09;14.20;99.90
17442;DHT22;8838;50.144;8.176;2022-11-11T10:36:42;14.20;99.90
17442;DHT22;8838;50.144;8.176;2022-11-11T10:39:12;14.70;99.90
17442;DHT22;8838;50.144;8.176;2022-11-11T10:41:43;14.90;99.90
17442;DHT22;8838;50.144;8.176;2022-11-11T10:44:19;14.70;99.90
17442;DHT22;8838;50.144;8.176;2022-11-11T10:46:57;14.00;99.90
17442;DHT22;8838;50.144;8.176;2022-11-11T10:49:30;13.20;99.90
17442;DHT22;8838;50.144;8.176;2022-11-11T10:52:00;12.70;99.90
17442;DHT22;8838;50.144;8.176;2022-11-11T10:54:34;12.60;99.90
17442;DHT22;8838;50.144;8.176;2022-11-11T10:57:10;12.50;99.90
17442;DHT22;8838;50.144;8.176;2022-11-11T10:59:42;12.40;99.90
17442;DHT22;8838;50.144;8.176;2022-11-11T11:02:16;12.30;99.90
17442;DHT22;8838;50.144;8.176;2022-11-11T11:04:47;12.20;99.90
17442;DHT22;8838;50.144;8.176;2022-11-11T11:07:20;12.10;99.90
17442;DHT22;8838;50.144;8.176;2022-11-11T11:09:51;12.00;99.90
17442;DHT22;8838;50.144;8.176;2022-11-11T11:12:25;12.00;99.90
17442;DHT22;8838;50.144;8.176;2022-11-11T11:14:59;12.00;99.90
17442;DHT22;8838;50.144;8.176;2022-11-11T11:17:34;12.00;99.90
17442;DHT22;8838;50.144;8.176;2022-11-11T11:20:10;12.00;99.90
17442;DHT22;8838;50.144;8.176;2022-11-11T11:22:46;12.00;99.90
17442;DHT22;8838;50.144;8.176;2022-11-11T11:25:14;11.90;99.90
17442;DHT22;8838;50.144;8.176;2022-11-11T11:27:43;12.00;99.90
17442;DHT22;8838;50.144;8.176;2022-11-11T11:30:12;11.90;99.90
17442;DHT22;8838;50.144;8.176;2022-11-11T11:32:41;11.90;99.90
17442;DHT22;8838;50.144;8.176;2022-11-11T11:35:09;11.80;99.90
17442;DHT22;8838;50.144;8.176;2022-11-11T11:37:54;11.80;99.90
17442;DHT22;8838;50.144;8.176;2022-11-11T11:40:21;11.80;99.90
17442;DHT22;8838;50.144;8.176;2022-11-11T11:42:48;11.70;99.90
17442;DHT22;8838;50.144;8.176;2022-11-11T11:45:23;11.70;99.90
17442;DHT22;8838;50.144;8.176;2022-11-11T11:48:01;11.70;99.90
17442;DHT22;8838;50.144;8.176;2022-11-11T11:50:45;11.70;99.90
17442;DHT22;8838;50.144;8.176;2022-11-11T11:53:36;11.80;99.90
17442;DHT22;8838;50.144;8.176;2022-11-11T11:56:12;11.80;99.90
17442;DHT22;8838;50.144;8.176;2022-11-11T11:58:52;11.90;99.90
17442;DHT22;8838;50.144;8.176;2022-11-11T12:01:25;12.10;99.90
17442;DHT22;8838;50.144;8.176;2022-11-11T12:04:26;12.20;99.90
17442;DHT22;8838;50.144;8.176;2022-11-11T12:07:03;12.30;99.90
17442;DHT22;8838;50.144;8.176;2022-11-11T12:09:38;12.20;99.90
17442;DHT22;8838;50.144;8.176;2022-11-11T12:12:25;12.20;99.90
17442;DHT22;8838;50.144;8.176;2022-11-11T12:15:01;12.20;99.90
17442;DHT22;8838;50.144;8.176;2022-11-11T12:17:39;12.20;99.90
17442;DHT22;8838;50.144;8.176;2022-11-11T12:20:15;12.20;99.90
17442;DHT22;8838;50.144;8.176;2022-11-11T12:25:52;12.20;99.90
17442;DHT22;8838;50.144;8.176;2022-11-11T12:28:33;12.20;99.90
17442;DHT22;8838;50.144;8.176;2022-11-11T12:31:15;12.10;99.90
17442;DHT22;8838;50.144;8.176;2022-11-11T12:34:14;12.10;99.90
17442;DHT22;8838;50.144;8.176;2022-11-11T12:36:51;12.00;99.90
17442;DHT22;8838;50.144;8.176;2022-11-11T12:39:48;11.80;99.90
17442;DHT22;8838;50.144;8.176;2022-11-11T12:42:27;11.60;99.90
17442;DHT22;8838;50.144;8.176;2022-11-11T12:45:01;11.30;99.90
17442;DHT22;8838;50.144;8.176;2022-11-11T12:47:39;11.10;99.90
17442;DHT22;8838;50.144;8.176;2022-11-11T12:50:18;10.90;99.90
17442;DHT22;8838;50.144;8.176;2022-11-11T12:52:58;10.80;99.90
17442;DHT22;8838;50.144;8.176;2022-11-11T12:55:34;10.60;99.90
17442;DHT22;8838;50.144;8.176;2022-11-11T12:58:16;10.40;99.90
17442;DHT22;8838;50.144;8.176;2022-11-11T13:00:53;10.20;99.90
17442;DHT22;8838;50.144;8.176;2022-11-11T13:03:34;10.10;99.90
17442;DHT22;8838;50.144;8.176;2022-11-11T13:06:12;10.00;99.90
17442;DHT22;8838;50.144;8.176;2022-11-11T13:09:08;10.00;99.90
17442;DHT22;8838;50.144;8.176;2022-11-11T13:11:40;9.80;99.90
17442;DHT22;8838;50.144;8.176;2022-11-11T13:14:27;9.60;99.90
17442;DHT22;8838;50.144;8.176;2022-11-11T13:17:00;9.50;99.90
17442;DHT22;8838;50.144;8.176;2022-11-11T13:19:31;9.20;99.90
17442;DHT22;8838;50.144;8.176;2022-11-11T13:22:05;9.00;99.90
17442;DHT22;8838;50.144;8.176;2022-11-11T13:24:36;8.80;99.90
17442;DHT22;8838;50.144;8.176;2022-11-11T13:27:06;8.80;99.90
17442;DHT22;8838;50.144;8.176;2022-11-11T13:29:52;8.80;99.90
17442;DHT22;8838;50.144;8.176;2022-11-11T13:32:25;8.80;99.90
17442;DHT22;8838;50.144;8.176;2022-11-11T13:34:53;8.60;99.90
17442;DHT22;8838;50.144;8.176;2022-11-11T13:37:23;8.50;99.90
17442;DHT22;8838;50.144;8.176;2022-11-11T13:39:58;8.40;99.90
17442;DHT22;8838;50.144;8.176;2022-11-11T13:42:27;8.30;99.90
17442;DHT22;8838;50.144;8.176;2022-11-11T13:44:58;8.30;99.90
17442;DHT22;8838;50.144;8.176;2022-11-11T13:47:33;8.40;99.90
17442;DHT22;8838;50.144;8.176;2022-11-11T13:50:03;8.50;99.90
17442;DHT22;8838;50.144;8.176;2022-11-11T13:52:33;8.40;99.90
17442;DHT22;8838;50.144;8.176;2022-11-11T13:55:03;8.30;99.90
17442;DHT22;8838;50.144;8.176;2022-11-11T13:57:32;8.40;99.90
17442;DHT22;8838;50.144;8.176;2022-11-11T14:00:03;8.50;99.90
17442;DHT22;8838;50.144;8.176;2022-11-11T14:02:31;8.60;99.90
17442;DHT22;8838;50.144;8.176;2022-11-11T14:05:19;8.70;99.90
17442;DHT22;8838;50.144;8.176;2022-11-11T14:07:49;8.70;99.90
17442;DHT22;8838;50.144;8.176;2022-11-11T14:10:53;8.90;99.90
17442;DHT22;8838;50.144;8.176;2022-11-11T14:13:36;9.30;99.90
17442;DHT22;8838;50.144;8.176;2022-11-11T14:16:03;9.70;99.90
17442;DHT22;8838;50.144;8.176;2022-11-11T14:18:40;10.00;99.90
17442;DHT22;8838;50.144;8.176;2022-11-11T14:21:08;10.20;99.90
17442;DHT22;8838;50.144;8.176;2022-11-11T14:23:37;10.30;99.90
17442;DHT22;8838;50.144;8.176;2022-11-11T14:26:31;10.40;99.90
17442;DHT22;8838;50.144;8.176;2022-11-11T14:28:59;10.30;99.90
17442;DHT22;8838;50.144;8.176;2022-11-11T14:34:30;10.00;99.90
17442;DHT22;8838;50.144;8.176;2022-11-11T14:37:13;9.90;99.90
17442;DHT22;8838;50.144;8.176;2022-11-11T14:39:46;9.70;99.90
17442;DHT22;8838;50.144;8.176;2022-11-11T14:42:43;9.70;99.90
17442;DHT22;8838;50.144;8.176;2022-11-11T14:48:57;9.60;99.90
17442;DHT22;8838;50.144;8.176;2022-11-11T14:51:50;9.50;99.90
17442;DHT22;8838;50.144;8.176;2022-11-11T14:54:31;9.40;99.90
17442;DHT22;8838;50.144;8.176;2022-11-11T14:57:06;9.30;99.90
17442;DHT22;8838;50.144;8.176;2022-11-11T14:59:35;9.20;99.90
17442;DHT22;8838;50.144;8.176;2022-11-11T15:02:09;9.10;99.90
17442;DHT22;8838;50.144;8.176;2022-11-11T15:04:40;9.10;99.90
17442;DHT22;8838;50.144;8.176;2022-11-11T15:07:22;9.00;99.90
17442;DHT22;8838;50.144;8.176;2022-11-11T15:10:09;9.00;99.90
17442;DHT22;8838;50.144;8.176;2022-11-11T15:12:48;8.90;99.90
17442;DHT22;8838;50.144;8.176;2022-11-11T15:15:24;8.90;99.90
17442;DHT22;8838;50.144;8.176;2022-11-11T15:18:01;8.80;99.90
17442;DHT22;8838;50.144;8.176;2022-11-11T15:20:55;8.90;99.90
17442;DHT22;8838;50.144;8.176;2022-11-11T15:23:30;8.90;99.90
17442;DHT22;8838;50.144;8.176;2022-11-11T15:26:09;8.80;99.90
17442;DHT22;8838;50.144;8.176;2022-11-11T15:29:04;8.70;99.90
17442;DHT22;8838;50.144;8.176;2022-11-11T15:31:48;8.60;99.90
17442;DHT22;8838;50.144;8.176;2022-11-11T15:34:26;8.60;99.90
17442;DHT22;8838;50.144;8.176;2022-11-11T15:36:58;8.50;99.90
17442;DHT22;8838;50.144;8.176;2022-11-11T15:39:39;8.40;99.90
17442;DHT22;8838;50.144;8.176;2022-11-11T15:42:11;8.40;99.90
17442;DHT22;8838;50.144;8.176;2022-11-11T15:44:39;8.60;99.90
17442;DHT22;8838;50.144;8.176;2022-11-11T15:47:11;8.70;99.90
17442;DHT22;8838;50.144;8.176;2022-11-11T15:49:40;8.80;99.90
17442;DHT22;8838;50.144;8.176;2022-11-11T15:52:27;8.70;99.90
17442;DHT22;8838;50.144;8.176;2022-11-11T15:54:55;8.70;99.90
17442;DHT22;8838;50.144;8.176;2022-11-11T15:57:24;8.80;99.90
17442;DHT22;8838;50.144;8.176;2022-11-11T15:59:52;8.80;99.90
17442;DHT22;8838;50.144;8.176;2022-11-11T16:02:22;8.80;99.90
17442;DHT22;8838;50.144;8.176;2022-11-11T16:04:53;8.70;99.90
17442;DHT22;8838;50.144;8.176;2022-11-11T16:07:23;8.40;99.90
17442;DHT22;8838;50.144;8.176;2022-11-11T16:09:51;8.30;99.90
17442;DHT22;8838;50.144;8.176;2022-11-11T16:12:22;8.10;99.90
17442;DHT22;8838;50.144;8.176;2022-11-11T16:14:52;8.00;99.90
17442;DHT22;8838;50.144;8.176;2022-11-11T16:17:22;8.00;99.90
17442;DHT22;8838;50.144;8.176;2022-11-11T16:19:51;8.00;99.90
17442;DHT22;8838;50.144;8.176;2022-11-11T16:22:20;7.90;99.90
17442;DHT22;8838;50.144;8.176;2022-11-11T16:24:48;7.80;99.90
17442;DHT22;8838;50.144;8.176;2022-11-11T16:27:27;7.70;99.90
17442;DHT22;8838;50.144;8.176;2022-11-11T16:29:54;7.70;99.90
17442;DHT22;8838;50.144;8.176;2022-11-11T16:32:34;7.70;99.90
17442;DHT22;8838;50.144;8.176;2022-11-11T16:37:50;8.00;99.90
17442;DHT22;8838;50.144;8.176;2022-11-11T16:40:39;8.20;99.90
17442;DHT22;8838;50.144;8.176;2022-11-11T16:43:16;8.30;99.90